createdAt,value
2023-03-13T03:25:07.739Z,998.00
2023-03-13T03:26:07.731Z,997.93
2023-03-13T03:27:07.714Z,997.93
2023-03-13T03:28:07.723Z,997.92
2023-03-13T03:29:07.716Z,997.85
2023-03-13T03:30:07.740Z,997.84
2023-03-13T03:31:07.719Z,997.88
2023-03-13T03:32:07.793Z,997.89
2023-03-13T03:33:07.725Z,997.86
2023-03-13T03:34:07.743Z,997.92
2023-03-13T03:35:07.729Z,997.95
2023-03-13T03:36:07.806Z,997.87
2023-03-13T03:37:07.742Z,997.90
2023-03-13T03:38:07.744Z,997.90
2023-03-13T03:39:07.742Z,997.91
2023-03-13T03:40:07.746Z,997.83
2023-03-13T03:41:07.782Z,997.86
2023-03-13T03:42:07.756Z,997.82
2023-03-13T03:43:07.755Z,997.86
2023-03-13T03:44:07.763Z,997.82
2023-03-13T03:45:07.766Z,997.79
2023-03-13T03:46:07.846Z,997.79
2023-03-13T03:47:07.823Z,997.73
2023-03-13T03:48:07.769Z,997.75
2023-03-13T03:49:07.767Z,997.69
2023-03-13T03:50:07.780Z,997.67
2023-03-13T03:51:07.806Z,997.70
2023-03-13T03:52:07.792Z,997.69
2023-03-13T03:53:07.778Z,997.69
2023-03-13T03:54:07.790Z,997.69
2023-03-13T03:55:07.799Z,997.67
2023-03-13T03:56:07.812Z,997.64
2023-03-13T03:57:07.818Z,997.61
2023-03-13T03:58:07.796Z,997.61
2023-03-13T03:59:07.796Z,997.57
2023-03-13T04:00:07.847Z,997.54
2023-03-13T04:01:07.803Z,997.49
2023-03-13T04:02:07.876Z,997.50
2023-03-13T04:03:07.891Z,997.47
2023-03-13T04:04:07.819Z,997.46
2023-03-13T04:05:07.822Z,997.41
2023-03-13T04:06:07.832Z,997.43
2023-03-13T04:07:07.828Z,997.34
2023-03-13T04:08:07.832Z,997.35
2023-03-13T04:09:07.829Z,997.34
2023-03-13T04:10:07.838Z,997.30
2023-03-13T04:11:07.843Z,997.33
2023-03-13T04:31:46.722Z,996.93
2023-03-13T04:32:46.806Z,996.81
2023-03-13T04:33:46.692Z,996.75
2023-03-13T04:34:46.698Z,996.79
2023-03-13T04:35:46.880Z,996.69
2023-03-13T04:36:46.698Z,996.71
2023-03-13T04:37:46.696Z,996.70
2023-03-13T04:38:46.692Z,996.65
2023-03-13T04:39:46.692Z,996.61
2023-03-13T04:40:46.701Z,996.57
2023-03-13T04:41:46.711Z,996.51
2023-03-13T04:42:46.708Z,996.55
2023-03-13T04:43:46.710Z,996.46
2023-03-13T04:44:46.714Z,996.43
2023-03-13T04:45:46.775Z,996.44
2023-03-13T04:46:46.731Z,996.32
2023-03-13T04:47:46.741Z,996.32
2023-03-13T04:48:46.726Z,996.25
2023-03-13T04:49:46.721Z,996.21
2023-03-13T04:50:46.728Z,996.20
2023-03-13T04:51:46.726Z,996.10
2023-03-13T04:52:49.449Z,996.10
2023-03-13T04:53:46.740Z,996.08
2023-03-13T04:54:46.732Z,996.10
2023-03-13T04:55:46.733Z,996.13
2023-03-13T04:56:46.736Z,996.06
2023-03-13T04:57:46.749Z,996.03
2023-03-13T04:58:47.140Z,996.00
2023-03-13T04:59:46.758Z,995.95
2023-03-13T05:00:46.749Z,995.97
2023-03-13T05:01:46.818Z,995.95
2023-03-13T05:02:46.752Z,995.87
2023-03-13T05:03:46.790Z,995.86
2023-03-13T05:04:46.785Z,995.88
2023-03-13T05:05:46.775Z,995.82
2023-03-13T05:06:46.763Z,995.77
2023-03-13T05:07:46.764Z,995.74
2023-03-13T05:08:46.775Z,995.74
2023-03-13T05:09:46.769Z,995.64
2023-03-13T05:10:46.780Z,995.63
2023-03-13T05:11:46.784Z,995.60
2023-03-13T05:12:46.780Z,995.60
2023-03-13T05:13:46.782Z,995.52
2023-03-13T05:14:46.785Z,995.44
2023-03-13T05:15:46.815Z,995.34
2023-03-13T05:16:46.790Z,995.37
2023-03-13T05:17:46.800Z,995.33
2023-03-13T05:18:46.801Z,995.39
2023-03-13T05:19:46.827Z,995.38
2023-03-13T05:20:46.817Z,995.34
2023-03-13T05:21:46.805Z,995.40
2023-03-13T05:22:46.811Z,995.37
2023-03-13T05:23:46.817Z,995.36
2023-03-13T05:24:46.812Z,995.36
2023-03-13T05:25:46.816Z,995.28
2023-03-13T05:26:46.817Z,995.22
2023-03-13T05:27:46.828Z,995.27
2023-03-13T05:28:46.822Z,995.30
2023-03-13T05:29:46.834Z,995.27
2023-03-13T05:30:46.918Z,995.25
2023-03-13T05:31:46.833Z,995.27
2023-03-13T05:32:46.919Z,995.22
2023-03-13T05:33:46.835Z,995.25
2023-03-13T05:34:46.863Z,995.20
2023-03-13T05:35:46.965Z,995.21
2023-03-13T05:36:46.859Z,995.13
2023-03-13T05:37:46.860Z,995.12
2023-03-13T05:38:46.861Z,995.11
2023-03-13T05:39:46.851Z,995.07
2023-03-13T05:40:46.856Z,995.03
2023-03-13T05:41:46.865Z,994.97
2023-03-13T05:42:46.869Z,994.94
2023-03-13T05:43:46.865Z,994.96
2023-03-13T05:44:46.866Z,994.96
2023-03-13T05:45:46.876Z,994.92
2023-03-13T05:46:46.954Z,994.97
2023-03-13T05:47:46.872Z,994.96
2023-03-13T05:48:46.877Z,994.98
2023-03-13T05:49:46.884Z,995.01
2023-03-13T05:50:46.878Z,995.00
2023-03-13T05:51:46.918Z,994.98
2023-03-13T05:52:46.884Z,994.97
2023-03-13T05:53:46.890Z,995.01
2023-03-13T05:54:46.887Z,994.95
2023-03-13T05:55:46.901Z,994.93
2023-03-13T05:56:46.893Z,994.90
2023-03-13T05:57:46.894Z,994.93
2023-03-13T05:58:46.899Z,994.97
2023-03-13T05:59:46.908Z,994.97
2023-03-13T06:00:46.907Z,995.00
2023-03-13T06:01:46.923Z,994.93
2023-03-13T06:02:46.911Z,994.96
2023-03-13T06:03:47.095Z,994.93
2023-03-13T06:04:47.072Z,994.92
2023-03-13T06:05:46.923Z,994.92
2023-03-13T06:06:46.920Z,994.86
2023-03-13T06:07:46.947Z,994.84
2023-03-13T06:08:46.930Z,994.82
2023-03-13T06:09:46.923Z,994.84
2023-03-13T06:10:46.937Z,994.82
2023-03-13T06:11:46.939Z,994.78
2023-03-13T06:12:46.934Z,994.72
2023-03-13T06:13:46.938Z,994.67
2023-03-13T06:14:46.937Z,994.62
2023-03-13T06:15:46.970Z,994.62
2023-03-13T06:16:46.943Z,994.62
2023-03-13T06:17:46.946Z,994.65
2023-03-13T06:18:46.956Z,994.62
2023-03-13T06:19:46.950Z,994.62
2023-03-13T06:20:46.948Z,994.66
2023-03-13T06:21:46.980Z,994.63
2023-03-13T06:22:46.958Z,994.68
2023-03-13T06:23:46.977Z,994.66
2023-03-13T06:24:46.973Z,994.67
2023-03-13T06:25:46.970Z,994.70
2023-03-13T06:26:49.329Z,994.65
2023-03-13T06:27:46.962Z,994.61
2023-03-13T06:28:46.973Z,994.61
2023-03-13T06:29:46.974Z,994.68
2023-03-13T06:30:46.980Z,994.67
2023-03-13T06:31:47.145Z,994.64
2023-03-13T06:32:47.153Z,994.66
2023-03-13T06:33:48.601Z,994.71
2023-03-13T06:34:46.989Z,994.63
2023-03-13T06:35:56.119Z,994.60
2023-03-13T06:36:46.994Z,994.58
2023-03-13T06:37:47.001Z,994.57
2023-03-13T06:38:46.994Z,994.66
2023-03-13T06:39:47.022Z,994.58
2023-03-13T06:40:48.021Z,994.47
2023-03-13T06:41:47.014Z,994.49
2023-03-13T06:42:47.017Z,994.46
2023-03-13T06:43:47.010Z,994.43
2023-03-13T06:44:47.019Z,994.27
2023-03-13T06:45:47.012Z,994.33
2023-03-13T06:46:47.065Z,994.32
2023-03-13T06:47:47.019Z,994.34
2023-03-13T06:48:47.028Z,994.32
2023-03-13T06:49:47.030Z,994.32
2023-03-13T06:50:47.040Z,994.29
2023-03-13T06:51:47.037Z,994.34
2023-03-13T06:52:47.030Z,994.31
2023-03-13T06:53:47.041Z,994.32
2023-03-13T06:54:47.041Z,994.31
2023-03-13T06:55:47.074Z,994.29
2023-03-13T06:56:47.049Z,994.26
2023-03-13T06:57:47.053Z,994.26
2023-03-13T06:58:47.046Z,994.23
2023-03-13T06:59:47.050Z,994.34
2023-03-13T07:00:47.139Z,994.19
2023-03-13T07:01:47.058Z,994.24
2023-03-13T07:02:47.066Z,994.17
2023-03-13T07:03:47.091Z,994.12
2023-03-13T07:04:47.067Z,994.18
2023-03-13T07:05:47.077Z,994.12
2023-03-13T07:06:47.083Z,994.12
2023-03-13T07:07:47.101Z,994.15
2023-03-13T07:08:47.085Z,994.10
2023-03-13T07:09:47.082Z,994.09
2023-03-13T07:10:47.082Z,994.13
2023-03-13T07:11:47.116Z,994.21
2023-03-13T07:12:47.089Z,994.09
2023-03-13T07:13:47.094Z,994.04
2023-03-13T07:14:47.102Z,994.07
2023-03-13T07:15:47.106Z,994.12
2023-03-13T07:16:47.198Z,994.11
2023-03-13T07:17:47.105Z,994.11
2023-03-13T07:18:47.117Z,994.12
2023-03-13T07:19:47.109Z,994.03
2023-03-13T07:20:47.115Z,994.10
2023-03-13T07:21:47.124Z,994.10
2023-03-13T07:22:47.120Z,994.08
2023-03-13T07:23:47.136Z,994.12
2023-03-13T07:24:47.158Z,994.04
2023-03-13T07:25:47.131Z,993.95
2023-03-13T07:27:02.044Z,994.08
2023-03-13T07:27:47.174Z,994.02
2023-03-13T07:28:47.145Z,994.07
2023-03-13T07:29:47.139Z,993.93
2023-03-13T07:30:47.143Z,993.94
2023-03-13T07:31:47.247Z,993.97
2023-03-13T07:32:47.313Z,993.96
2023-03-13T07:33:47.161Z,993.96
2023-03-13T07:34:47.154Z,994.01
2023-03-13T07:35:47.164Z,993.98
2023-03-13T07:36:47.166Z,993.95
2023-03-13T07:37:47.166Z,993.95
2023-03-13T07:38:47.174Z,993.94
2023-03-13T07:39:47.168Z,993.91
2023-03-13T07:40:47.174Z,993.88
2023-03-13T07:41:47.180Z,993.86
2023-03-13T07:42:47.199Z,993.87
2023-03-13T07:43:47.207Z,993.86
2023-03-13T07:44:47.182Z,993.83
2023-03-13T07:45:47.253Z,993.87
2023-03-13T07:46:47.186Z,993.84
2023-03-13T07:47:47.191Z,993.83
2023-03-13T07:48:47.198Z,993.81
2023-03-13T07:49:47.198Z,993.84
2023-03-13T07:51:42.622Z,993.86
2023-03-13T07:52:29.750Z,993.80
2023-03-13T07:53:29.796Z,993.82
2023-03-13T07:54:29.748Z,993.81
2023-03-13T07:55:29.755Z,993.75
2023-03-13T07:56:29.754Z,993.83
2023-03-13T07:57:29.760Z,993.77
2023-03-13T07:58:29.772Z,993.68
2023-03-13T07:59:29.796Z,993.73
2023-03-13T08:00:29.771Z,993.64
2023-03-13T08:01:31.122Z,993.59
2023-03-13T08:02:29.822Z,993.58
2023-03-13T08:03:29.821Z,993.51
2023-03-13T08:04:29.783Z,993.47
2023-03-13T08:05:29.787Z,993.41
2023-03-13T08:06:31.348Z,993.41
2023-03-13T08:07:29.799Z,993.46
2023-03-13T08:08:29.801Z,993.49
2023-03-13T08:09:29.798Z,993.50
2023-03-13T08:10:29.812Z,993.55
2023-03-13T08:11:29.806Z,993.59
2023-03-13T08:12:29.808Z,993.44
2023-03-13T08:13:29.810Z,993.44
2023-03-13T08:14:29.826Z,993.42
2023-03-13T08:15:29.846Z,993.44
2023-03-13T08:16:29.873Z,993.52
2023-03-13T08:17:29.823Z,993.50
2023-03-13T08:18:29.854Z,993.60
2023-03-13T08:19:29.849Z,993.49
2023-03-13T08:20:29.834Z,993.43
2023-03-13T08:21:29.835Z,993.37
2023-03-13T08:22:29.847Z,993.37
2023-03-13T08:23:29.849Z,993.36
2023-03-13T08:25:42.448Z,993.43
2023-03-13T08:26:42.458Z,993.36
2023-03-13T08:27:42.450Z,993.32
2023-03-13T08:28:42.464Z,993.26
2023-03-13T08:29:42.460Z,993.34
2023-03-13T08:30:42.522Z,993.39
2023-03-13T08:31:42.464Z,993.36
2023-03-13T08:32:42.525Z,993.36
2023-03-13T08:33:42.480Z,993.41
2023-03-13T08:34:42.484Z,993.33
2023-03-13T08:35:42.552Z,993.36
2023-03-13T08:36:42.533Z,993.35
2023-03-13T08:37:42.500Z,993.28
2023-03-13T08:38:43.761Z,993.32
2023-03-13T08:39:42.495Z,993.31
2023-03-13T08:41:35.067Z,993.19
2023-03-13T08:42:35.071Z,993.19
2023-03-13T08:53:29.219Z,993.23
2023-03-13T08:54:29.222Z,993.22
2023-03-13T08:55:29.202Z,993.22
2023-03-13T08:56:29.204Z,993.14
2023-03-13T08:57:29.217Z,993.03
2023-03-13T08:58:29.220Z,993.05
2023-03-13T08:59:29.218Z,993.03
2023-03-13T09:00:29.231Z,993.05
2023-03-13T09:01:29.247Z,993.00
2023-03-13T09:02:29.250Z,992.97
2023-03-13T09:03:29.271Z,993.04
2023-03-13T09:06:01.877Z,992.98
2023-03-13T09:07:01.884Z,993.08
2023-03-13T09:08:01.883Z,993.08
2023-03-13T09:09:01.908Z,993.04
2023-03-13T09:10:01.900Z,993.14
2023-03-13T09:11:01.904Z,993.12
2023-03-13T09:12:01.964Z,993.12
2023-03-13T09:13:01.922Z,993.10
2023-03-13T09:14:01.943Z,993.07
2023-03-13T09:15:01.918Z,993.20
2023-03-13T09:16:01.977Z,993.12
2023-03-13T09:17:01.925Z,993.10
2023-03-13T09:18:01.970Z,993.12
2023-03-13T09:19:01.949Z,993.09
2023-03-13T09:20:01.967Z,993.03
2023-03-13T09:21:01.949Z,993.05
2023-03-13T09:22:01.964Z,992.96
2023-03-13T09:23:01.955Z,993.03
2023-03-13T09:24:01.996Z,992.97
2023-03-13T09:25:01.997Z,992.98
2023-03-13T09:26:01.975Z,993.01
2023-03-13T09:27:01.975Z,993.06
2023-03-13T09:28:01.984Z,993.07
2023-03-13T09:29:02.015Z,993.00
2023-03-13T09:30:01.987Z,993.05
2023-03-13T09:31:02.077Z,993.08
2023-03-13T09:32:02.008Z,992.97
2023-03-13T09:33:02.116Z,992.97
2023-03-13T09:34:02.099Z,993.06
2023-03-13T09:35:02.022Z,993.03
2023-03-13T09:36:02.061Z,993.09
2023-03-13T09:37:02.030Z,993.12
2023-03-13T09:38:02.037Z,993.12
2023-03-13T09:39:02.042Z,993.12
2023-03-13T09:40:02.031Z,993.09
2023-03-13T09:41:06.316Z,993.05
2023-03-13T09:42:02.044Z,992.98
2023-03-13T09:43:02.061Z,992.96
2023-03-13T09:44:02.054Z,992.93
2023-03-13T09:45:02.064Z,992.95
2023-03-13T09:46:02.148Z,992.95
2023-03-13T09:47:02.072Z,992.97
2023-03-13T09:48:02.088Z,992.91
2023-03-13T09:49:02.087Z,992.85
2023-03-13T09:50:02.088Z,992.84
2023-03-13T09:51:02.100Z,992.88
2023-03-13T09:52:02.113Z,992.79
2023-03-13T09:53:02.100Z,992.80
2023-03-13T09:54:02.124Z,992.83
2023-03-13T09:55:02.176Z,992.80
2023-03-13T09:56:02.124Z,992.78
2023-03-13T09:57:02.263Z,992.81
2023-03-13T09:58:02.145Z,992.78
2023-03-13T09:59:02.145Z,992.74
2023-03-13T10:00:02.154Z,992.72
2023-03-13T10:01:02.154Z,992.66
2023-03-13T10:02:02.259Z,992.70
2023-03-13T10:03:02.174Z,992.65
2023-03-13T10:04:02.192Z,992.73
2023-03-13T10:05:02.194Z,992.77
2023-03-13T10:06:02.185Z,992.73
2023-03-13T10:07:02.196Z,992.73
2023-03-13T10:08:02.195Z,992.74
2023-03-13T10:09:02.204Z,992.70
2023-03-13T10:10:02.208Z,992.63
2023-03-13T10:11:02.240Z,992.65
2023-03-13T10:12:02.226Z,992.64
2023-03-13T10:13:02.254Z,992.53
2023-03-13T10:14:02.246Z,992.61
2023-03-13T10:15:02.246Z,992.67
2023-03-13T10:16:02.316Z,992.67
2023-03-13T10:17:02.256Z,992.59
2023-03-13T10:18:02.265Z,992.59
2023-03-13T10:19:02.280Z,992.60
2023-03-13T10:20:02.301Z,992.57
2023-03-13T10:21:02.289Z,992.56
2023-03-13T10:22:02.305Z,992.59
2023-03-13T10:23:02.315Z,992.56
2023-03-13T10:24:02.315Z,992.59
2023-03-13T10:25:02.324Z,992.49
2023-03-13T10:26:02.342Z,992.56
2023-03-13T10:27:02.347Z,992.62
2023-03-13T10:28:02.367Z,992.49
2023-03-13T10:29:02.405Z,992.39
2023-03-13T10:30:02.382Z,992.38
2023-03-13T10:31:02.438Z,992.45
2023-03-13T10:32:02.404Z,992.30
2023-03-13T10:33:02.413Z,992.35
2023-03-13T10:34:02.403Z,992.32
2023-03-13T10:58:08.053Z,991.94
2023-03-13T10:59:08.037Z,991.95
2023-03-13T11:00:08.056Z,992.04
2023-03-13T11:01:08.060Z,992.01
2023-03-13T11:02:08.108Z,992.04
2023-03-13T11:03:08.222Z,992.03
2023-03-13T11:04:08.084Z,992.02
2023-03-13T11:05:08.095Z,992.00
2023-03-13T11:06:08.102Z,991.98
2023-03-13T11:07:08.113Z,991.97
2023-03-13T11:08:08.157Z,992.06
2023-03-13T11:09:08.121Z,991.97
2023-03-13T11:10:08.138Z,991.95
2023-03-13T11:11:08.137Z,992.04
2023-03-13T11:12:08.148Z,992.08
2023-03-13T11:13:08.153Z,992.03
2023-03-13T11:14:08.185Z,991.95
2023-03-13T11:15:08.278Z,992.11
2023-03-13T11:16:08.227Z,992.12
2023-03-13T11:17:08.190Z,992.06
2023-03-13T11:18:08.230Z,992.10
2023-03-13T11:19:08.237Z,992.17
2023-03-13T11:20:08.217Z,992.08
2023-03-13T11:21:17.813Z,992.07
2023-03-13T11:22:08.269Z,992.09
2023-03-13T11:23:08.242Z,992.04
2023-03-13T11:24:08.254Z,991.98
2023-03-13T11:25:08.256Z,991.97
2023-03-13T11:26:08.263Z,991.96
2023-03-13T11:27:08.369Z,992.00
2023-03-13T11:28:08.280Z,992.01
2023-03-13T11:29:08.284Z,991.94
2023-03-13T11:30:08.416Z,991.97
2023-03-13T11:31:08.392Z,991.94
2023-03-13T11:32:08.300Z,991.93
2023-03-13T11:33:08.308Z,991.98
2023-03-13T11:34:08.334Z,991.98
2023-03-13T11:35:08.333Z,991.98
2023-03-13T11:36:08.368Z,991.96
2023-03-13T11:37:08.347Z,991.94
2023-03-13T11:38:08.348Z,991.95
2023-03-13T11:39:08.363Z,991.89
2023-03-13T11:40:08.365Z,991.94
2023-03-13T11:41:08.378Z,991.93
2023-03-13T11:42:08.372Z,991.87
2023-03-13T11:43:23.602Z,991.92
2023-03-13T11:44:08.398Z,991.89
2023-03-13T11:45:08.404Z,991.95
2023-03-13T11:46:08.587Z,991.91
2023-03-13T11:47:08.458Z,991.89
2023-03-13T11:48:08.420Z,991.88
2023-03-13T11:49:08.426Z,991.85
2023-03-13T11:50:08.437Z,991.93
2023-03-13T11:51:08.480Z,991.90
2023-03-13T11:52:08.454Z,991.99
2023-03-13T11:53:08.540Z,991.92
2023-03-13T11:54:08.463Z,991.86
2023-03-13T11:55:08.476Z,991.92
2023-03-13T11:56:08.486Z,991.86
2023-03-13T11:57:08.491Z,991.94
2023-03-13T11:58:08.497Z,991.87
2023-03-13T11:59:08.518Z,991.88
2023-03-13T12:00:08.504Z,991.87
2023-03-13T12:01:08.607Z,991.89
2023-03-13T12:02:08.618Z,991.92
2023-03-13T12:03:08.578Z,991.91
2023-03-13T12:04:08.544Z,991.83
2023-03-13T12:05:08.618Z,991.96
2023-03-13T12:06:15.829Z,991.84
2023-03-13T12:07:08.564Z,991.87
2023-03-13T12:08:08.566Z,991.89
2023-03-13T12:09:08.590Z,991.85
2023-03-13T12:10:08.597Z,991.85
2023-03-13T12:11:08.598Z,991.86
2023-03-13T12:12:08.606Z,991.78
2023-03-13T12:13:08.606Z,991.75
2023-03-13T12:14:08.615Z,991.68
2023-03-13T12:15:08.622Z,991.67
2023-03-13T12:16:08.648Z,991.72
2023-03-13T12:17:08.646Z,991.55
2023-03-13T12:18:08.689Z,991.49
2023-03-13T12:19:08.669Z,991.44
2023-03-13T12:20:08.673Z,991.51
2023-03-13T12:21:08.671Z,991.52
2023-03-13T12:22:08.738Z,991.40
2023-03-13T12:23:08.694Z,991.37
2023-03-13T12:24:08.786Z,991.27
2023-03-13T12:25:08.731Z,991.24
2023-03-13T12:26:08.743Z,991.17
2023-03-13T12:27:08.724Z,991.20
2023-03-13T12:28:08.857Z,991.15
2023-03-13T12:29:08.744Z,991.14
2023-03-13T12:30:08.754Z,991.18
2023-03-13T12:31:08.875Z,991.18
2023-03-13T12:32:08.772Z,991.21
2023-03-13T12:33:08.782Z,991.08
2023-03-13T12:34:08.817Z,991.02
2023-03-13T12:35:08.798Z,991.00
2023-03-13T12:36:08.865Z,991.01
2023-03-13T12:37:08.823Z,991.10
2023-03-13T12:38:08.827Z,990.99
2023-03-13T12:39:08.834Z,991.06
2023-03-13T12:40:11.639Z,991.09
2023-03-13T12:41:08.853Z,990.97
2023-03-13T12:42:08.868Z,990.92
2023-03-13T12:43:08.869Z,991.00
2023-03-13T12:44:09.652Z,991.01
2023-03-13T12:45:08.902Z,990.92
2023-03-13T12:46:09.094Z,991.05
2023-03-13T12:47:08.906Z,991.03
2023-03-13T12:48:08.953Z,991.02
2023-03-13T12:49:08.931Z,990.94
2023-03-13T12:50:08.953Z,990.78
2023-03-13T12:51:08.938Z,991.02
2023-03-13T12:52:08.943Z,990.87
2023-03-13T12:53:08.962Z,990.89
2023-03-13T12:54:09.022Z,990.86
2023-03-13T12:55:08.990Z,990.94
2023-03-13T12:56:08.989Z,990.85
2023-03-13T12:57:08.989Z,990.75
2023-03-13T12:58:08.992Z,990.77
2023-03-13T12:59:09.002Z,990.74
2023-03-13T13:00:09.014Z,990.76
2023-03-13T13:01:09.027Z,990.71
2023-03-13T13:02:09.021Z,990.60
2023-03-13T13:03:09.029Z,990.66
2023-03-13T13:04:09.071Z,990.49
2023-03-13T13:05:09.045Z,990.56
2023-03-13T13:06:09.080Z,990.52
2023-03-13T13:07:09.073Z,990.51
2023-03-13T13:08:09.065Z,990.47
2023-03-13T13:09:09.082Z,990.49
2023-03-13T13:10:09.096Z,990.52
2023-03-13T13:11:09.091Z,990.46
2023-03-13T13:12:09.097Z,990.41
2023-03-13T13:13:09.106Z,990.46
2023-03-13T13:14:09.121Z,990.45
2023-03-13T13:15:09.124Z,990.43
2023-03-13T13:16:09.251Z,990.38
2023-03-13T13:17:09.148Z,990.40
2023-03-13T13:18:09.149Z,990.34
2023-03-13T13:19:09.157Z,990.45
2023-03-13T13:20:09.168Z,990.37
2023-03-13T13:21:09.171Z,990.41
2023-03-13T13:22:09.258Z,990.34
2023-03-13T13:23:09.190Z,990.40
2023-03-13T13:24:09.202Z,990.26
2023-03-13T13:25:09.224Z,990.31
2023-03-13T13:26:09.216Z,990.31
2023-03-13T13:27:09.243Z,990.33
2023-03-13T13:29:16.845Z,990.33
2023-03-13T13:30:16.870Z,990.26
2023-03-13T13:31:17.085Z,990.25
2023-03-13T13:32:16.971Z,990.24
2023-03-13T13:33:16.888Z,990.34
2023-03-13T13:34:16.882Z,990.27
2023-03-13T13:35:16.903Z,990.27
2023-03-13T13:36:16.974Z,990.28
2023-03-13T13:43:09.428Z,990.33
2023-03-13T13:44:09.401Z,990.28
2023-03-13T13:45:09.426Z,990.24
2023-03-13T13:46:09.471Z,990.21
2023-03-13T13:47:09.427Z,990.16
2023-03-13T13:48:09.451Z,990.09
2023-03-13T13:49:09.461Z,990.02
2023-03-13T13:50:09.455Z,990.17
2023-03-13T13:51:09.481Z,990.06
2023-03-13T13:52:09.472Z,990.03
2023-03-13T13:53:09.486Z,990.07
2023-03-13T14:01:45.490Z,990.14
2023-03-13T14:02:45.301Z,990.16
2023-03-13T14:03:45.315Z,990.22
2023-03-13T14:04:45.416Z,990.15
2023-03-13T14:05:45.324Z,990.11
2023-03-13T14:06:45.356Z,990.05
2023-03-13T14:07:45.347Z,990.06
2023-03-13T14:08:45.375Z,990.07
2023-03-13T14:09:45.378Z,990.08
2023-03-13T14:10:45.395Z,990.09
2023-03-13T14:11:45.386Z,989.98
2023-03-13T14:12:45.394Z,989.97
2023-03-13T14:13:45.424Z,990.01
2023-03-13T14:14:45.438Z,990.02
2023-03-13T14:15:45.542Z,990.05
2023-03-13T14:16:45.433Z,989.98
2023-03-13T14:17:45.500Z,990.01
2023-03-13T14:18:45.452Z,989.92
2023-03-13T14:19:45.486Z,989.90
2023-03-13T14:20:45.470Z,989.87
2023-03-13T14:21:45.504Z,989.87
2023-03-13T14:22:45.509Z,989.83
2023-03-13T14:23:45.503Z,989.85
2023-03-13T14:24:45.528Z,989.84
2023-03-13T14:25:45.519Z,989.81
2023-03-13T14:26:45.546Z,989.83
2023-03-13T14:27:45.566Z,989.83
2023-03-13T14:28:45.565Z,989.76
2023-03-13T14:29:45.554Z,989.75
2023-03-13T14:30:45.594Z,989.81
2023-03-13T14:31:45.688Z,989.80
2023-03-13T14:32:45.656Z,989.78
2023-03-13T14:33:45.623Z,989.71
2023-03-13T14:34:45.622Z,989.68
2023-03-13T14:35:45.678Z,989.71
2023-03-13T14:36:45.647Z,989.66
2023-03-13T14:37:45.626Z,989.73
2023-03-13T14:38:45.657Z,989.67
2023-03-13T14:39:45.677Z,989.74
2023-03-13T14:40:45.685Z,989.76
2023-03-13T14:41:45.663Z,989.70
2023-03-13T14:42:45.672Z,989.67
2023-03-13T14:43:45.683Z,989.66
2023-03-13T14:44:45.735Z,989.78
2023-03-13T14:45:45.718Z,989.73
2023-03-13T14:46:45.771Z,989.81
2023-03-13T14:47:45.713Z,989.68
2023-03-13T14:48:45.820Z,989.60
2023-03-13T14:49:45.825Z,989.81
2023-03-13T14:50:45.767Z,989.63
2023-03-13T14:51:45.758Z,989.57
2023-03-13T14:52:45.754Z,989.58
2023-03-13T14:53:45.769Z,989.59
2023-03-13T14:54:45.771Z,989.62
2023-03-13T14:55:45.790Z,989.47
2023-03-13T14:56:45.813Z,989.52
2023-03-13T14:57:45.818Z,989.55
2023-03-13T14:58:45.827Z,989.59
2023-03-13T14:59:45.835Z,989.58
2023-03-13T15:00:45.942Z,989.57
2023-03-13T15:01:45.852Z,989.55
2023-03-13T15:02:45.841Z,989.47
2023-03-13T15:03:45.851Z,989.52
2023-03-13T15:04:46.017Z,989.52
2023-03-13T15:05:45.910Z,989.51
2023-03-13T15:06:45.896Z,989.49
2023-03-13T15:07:45.882Z,989.49
2023-03-13T15:08:45.910Z,989.39
2023-03-13T15:09:45.896Z,989.33
2023-03-13T15:10:45.934Z,989.34
2023-03-13T15:11:45.919Z,989.30
2023-03-13T15:12:45.943Z,989.45
2023-03-13T15:13:45.957Z,989.37
2023-03-13T15:14:45.965Z,989.31
2023-03-13T15:15:45.971Z,989.24
2023-03-13T15:16:46.028Z,989.26
2023-03-13T15:17:45.996Z,989.18
2023-03-13T15:18:45.995Z,989.10
2023-03-13T15:19:46.001Z,989.16
2023-03-13T15:20:46.009Z,989.18
2023-03-13T15:21:46.110Z,989.16
2023-03-13T15:22:46.041Z,989.16
2023-03-13T15:23:46.121Z,989.15
2023-03-13T15:24:59.602Z,989.19
2023-03-13T15:25:46.092Z,989.22
2023-03-13T15:26:48.600Z,989.23
2023-03-13T15:27:46.125Z,989.11
2023-03-13T15:28:46.132Z,989.08
2023-03-13T15:29:46.116Z,989.01
2023-03-13T15:30:46.118Z,989.05
2023-03-13T15:31:46.224Z,988.98
2023-03-13T15:32:46.233Z,988.96
2023-03-13T15:33:46.109Z,988.94
2023-03-13T15:34:46.131Z,988.96
2023-03-13T15:35:46.138Z,988.93
2023-03-13T15:36:46.151Z,988.99
2023-03-13T15:37:46.143Z,988.96
2023-03-13T15:38:46.151Z,988.93
2023-03-13T15:39:46.144Z,988.90
2023-03-13T15:40:46.148Z,988.97
2023-03-13T15:41:46.205Z,988.97
2023-03-13T15:42:46.170Z,988.88
2023-03-13T15:43:46.191Z,988.95
2023-03-13T15:44:46.202Z,988.94
2023-03-13T15:45:46.262Z,988.99
2023-03-13T15:46:46.225Z,988.92
2023-03-13T15:47:46.308Z,988.96
2023-03-13T15:48:46.231Z,988.90
2023-03-13T15:49:46.241Z,988.90
2023-03-13T15:50:46.232Z,988.86
2023-03-13T15:51:46.253Z,988.85
2023-03-13T15:52:46.257Z,988.84
2023-03-13T15:53:46.547Z,988.86
2023-03-13T15:54:46.280Z,988.80
2023-03-13T15:55:46.270Z,988.76
2023-03-13T15:56:46.296Z,988.70
2023-03-13T15:57:46.303Z,988.66
2023-03-13T15:58:46.310Z,988.65
2023-03-13T15:59:46.319Z,988.61
2023-03-13T16:00:46.342Z,988.64
2023-03-13T16:01:46.337Z,988.55
2023-03-13T16:02:46.328Z,988.55
2023-03-13T16:03:46.358Z,988.55
2023-03-13T16:04:46.456Z,988.45
2023-03-13T16:05:46.369Z,988.51
2023-03-13T16:06:46.380Z,988.40
2023-03-13T16:07:46.385Z,988.48
2023-03-13T16:08:46.424Z,988.38
2023-03-13T16:09:46.434Z,988.39
2023-03-13T16:10:46.425Z,988.31
2023-03-13T16:11:46.409Z,988.23
2023-03-13T16:12:46.408Z,988.25
2023-03-13T16:13:46.458Z,988.21
2023-03-13T16:14:46.427Z,988.21
2023-03-13T16:15:46.439Z,988.20
2023-03-13T16:16:46.551Z,988.14
2023-03-13T16:17:46.499Z,988.11
2023-03-13T16:18:46.461Z,988.15
2023-03-13T16:19:46.484Z,988.13
2023-03-13T16:20:46.583Z,988.15
2023-03-13T16:21:46.501Z,988.14
2023-03-13T16:22:46.540Z,988.14
2023-03-13T16:23:46.545Z,988.13
2023-03-13T16:24:46.554Z,988.06
2023-03-13T16:25:46.660Z,988.11
2023-03-13T16:26:46.522Z,988.09
2023-03-13T16:27:46.552Z,988.10
2023-03-13T16:28:46.577Z,988.08
2023-03-13T16:29:46.680Z,988.07
2023-03-13T16:30:46.697Z,988.06
2023-03-13T16:31:46.589Z,987.96
2023-03-13T16:32:46.637Z,987.90
2023-03-13T16:33:46.638Z,987.91
2023-03-13T16:34:46.632Z,987.88
2023-03-13T16:35:46.676Z,987.82
2023-03-13T16:36:46.669Z,987.84
2023-03-13T16:37:46.665Z,987.84
2023-03-13T16:38:46.658Z,987.77
2023-03-13T16:39:46.669Z,987.85
2023-03-13T16:40:46.678Z,987.85
2023-03-13T16:41:46.710Z,987.82
2023-03-13T16:42:46.693Z,987.91
2023-03-13T16:43:46.722Z,987.87
2023-03-13T16:44:46.711Z,987.95
2023-03-13T16:45:46.731Z,988.01
2023-03-13T16:47:04.177Z,988.00
2023-03-13T16:47:46.759Z,988.06
2023-03-13T16:48:46.740Z,988.02
2023-03-13T16:49:47.544Z,988.05
2023-03-13T16:50:46.709Z,988.09
2023-03-13T16:51:46.730Z,988.09
2023-03-13T16:52:46.822Z,988.12
2023-03-13T16:53:46.807Z,988.15
2023-03-13T16:54:46.806Z,988.09
2023-03-13T16:55:46.746Z,988.14
2023-03-13T16:56:46.753Z,988.11
2023-03-13T16:57:46.836Z,988.12
2023-03-13T16:58:46.787Z,988.11
2023-03-13T16:59:46.818Z,988.14
2023-03-13T17:00:59.277Z,988.08
2023-03-13T17:01:46.809Z,988.14
2023-03-13T17:02:46.903Z,988.08
2023-03-13T17:03:46.825Z,988.08
2023-03-13T17:04:46.962Z,988.05